In Rescue
 
Open Full Screen Window  High Contrast Mode
Wind Gusting 14 knots
08
February 02, 2023 6:29 PM EST
Weather Information
Wind Direction
  350 °
Wind Speed
  08 kt (9 mph)
Wind Gust
  14 kt (16 mph)
Altimeter
30.14 in
Visibility
10 SM
Temperature
-06° C
21° F
Dewpoint
-18° C
F
Humidity
38%
1hr Rain Fall
00.00 in.
24hr Rain Fall
00.00 in.
Sky Condition
Overcast @ 4,700 ft
VFR

METAR KLDM 022329Z AUTO 35008G14KT 10SM OVC047 M06/M18 A3014 RMK AO2 T10621176

FAA Disclaimer: The data displayed is for advisory purposes only and is not to be used for flight planning or operations.